sensor_id;sensor_type;location;lat;lon;timestamp;temperature;humidity
65462;DHT22;53236;43.666;18.444;2023-04-25T00:00:52;7.60;99.90
65462;DHT22;53236;43.666;18.444;2023-04-25T00:03:18;7.60;99.90
65462;DHT22;53236;43.666;18.444;2023-04-25T00:05:45;7.60;99.90
65462;DHT22;53236;43.666;18.444;2023-04-25T00:08:11;7.60;99.90
65462;DHT22;53236;43.666;18.444;2023-04-25T00:10:36;7.60;99.90
65462;DHT22;53236;43.666;18.444;2023-04-25T00:13:02;7.60;99.90
65462;DHT22;53236;43.666;18.444;2023-04-25T00:15:28;7.60;99.90
65462;DHT22;53236;43.666;18.444;2023-04-25T00:17:57;7.70;99.90
65462;DHT22;53236;43.666;18.444;2023-04-25T00:20:23;7.70;99.90
65462;DHT22;53236;43.666;18.444;2023-04-25T00:22:50;7.50;99.90
65462;DHT22;53236;43.666;18.444;2023-04-25T00:25:18;7.50;99.90
65462;DHT22;53236;43.666;18.444;2023-04-25T00:27:44;7.60;99.90
65462;DHT22;53236;43.666;18.444;2023-04-25T00:30:10;7.60;99.90
65462;DHT22;53236;43.666;18.444;2023-04-25T00:32:36;7.60;99.90
65462;DHT22;53236;43.666;18.444;2023-04-25T00:35:02;7.60;99.90
65462;DHT22;53236;43.666;18.444;2023-04-25T00:37:27;7.50;99.90
65462;DHT22;53236;43.666;18.444;2023-04-25T00:39:53;7.50;99.90
65462;DHT22;53236;43.666;18.444;2023-04-25T00:42:21;7.50;99.90
65462;DHT22;53236;43.666;18.444;2023-04-25T00:44:47;7.50;99.90
65462;DHT22;53236;43.666;18.444;2023-04-25T00:47:13;7.40;99.90
65462;DHT22;53236;43.666;18.444;2023-04-25T00:49:39;7.50;99.90
65462;DHT22;53236;43.666;18.444;2023-04-25T00:52:05;7.50;99.90
65462;DHT22;53236;43.666;18.444;2023-04-25T00:54:31;7.50;99.90
65462;DHT22;53236;43.666;18.444;2023-04-25T00:56:57;7.50;99.90
65462;DHT22;53236;43.666;18.444;2023-04-25T00:59:23;7.50;99.90
65462;DHT22;53236;43.666;18.444;2023-04-25T01:01:49;7.50;99.90
65462;DHT22;53236;43.666;18.444;2023-04-25T01:04:15;7.50;99.90
65462;DHT22;53236;43.666;18.444;2023-04-25T01:06:41;7.50;99.90
65462;DHT22;53236;43.666;18.444;2023-04-25T01:09:07;7.50;99.90
65462;DHT22;53236;43.666;18.444;2023-04-25T01:11:33;7.50;99.90
65462;DHT22;53236;43.666;18.444;2023-04-25T01:13:59;7.60;99.90
65462;DHT22;53236;43.666;18.444;2023-04-25T01:16:25;7.50;99.90
65462;DHT22;53236;43.666;18.444;2023-04-25T01:18:51;7.50;99.90
65462;DHT22;53236;43.666;18.444;2023-04-25T01:21:17;7.60;99.90
65462;DHT22;53236;43.666;18.444;2023-04-25T01:23:43;7.50;99.90
65462;DHT22;53236;43.666;18.444;2023-04-25T01:26:10;7.50;99.90
65462;DHT22;53236;43.666;18.444;2023-04-25T01:28:36;7.50;99.90
65462;DHT22;53236;43.666;18.444;2023-04-25T01:31:03;7.60;99.90
65462;DHT22;53236;43.666;18.444;2023-04-25T01:33:29;7.50;99.90
65462;DHT22;53236;43.666;18.444;2023-04-25T01:35:55;7.60;99.90
65462;DHT22;53236;43.666;18.444;2023-04-25T01:38:21;7.50;99.90
65462;DHT22;53236;43.666;18.444;2023-04-25T01:40:49;7.50;99.90
65462;DHT22;53236;43.666;18.444;2023-04-25T01:43:16;7.50;99.90
65462;DHT22;53236;43.666;18.444;2023-04-25T01:45:42;7.40;99.90
65462;DHT22;53236;43.666;18.444;2023-04-25T01:48:13;7.40;99.90
65462;DHT22;53236;43.666;18.444;2023-04-25T01:50:41;7.30;99.90
65462;DHT22;53236;43.666;18.444;2023-04-25T01:53:09;7.30;99.90
65462;DHT22;53236;43.666;18.444;2023-04-25T01:55:35;7.30;99.90
65462;DHT22;53236;43.666;18.444;2023-04-25T01:58:02;7.20;99.90
65462;DHT22;53236;43.666;18.444;2023-04-25T02:00:28;7.10;99.90
65462;DHT22;53236;43.666;18.444;2023-04-25T02:02:58;7.10;99.90
65462;DHT22;53236;43.666;18.444;2023-04-25T02:05:23;7.00;99.90
65462;DHT22;53236;43.666;18.444;2023-04-25T02:07:49;7.00;99.90
65462;DHT22;53236;43.666;18.444;2023-04-25T02:10:15;6.90;99.90
65462;DHT22;53236;43.666;18.444;2023-04-25T02:12:41;6.90;99.90
65462;DHT22;53236;43.666;18.444;2023-04-25T02:15:07;6.80;99.90
65462;DHT22;53236;43.666;18.444;2023-04-25T02:17:32;6.80;99.90
65462;DHT22;53236;43.666;18.444;2023-04-25T02:19:59;6.70;99.90
65462;DHT22;53236;43.666;18.444;2023-04-25T02:22:25;6.80;99.90
65462;DHT22;53236;43.666;18.444;2023-04-25T02:24:52;6.80;99.90
65462;DHT22;53236;43.666;18.444;2023-04-25T02:27:18;6.80;99.90
65462;DHT22;53236;43.666;18.444;2023-04-25T02:29:44;6.80;99.90
65462;DHT22;53236;43.666;18.444;2023-04-25T02:32:10;6.80;99.90
65462;DHT22;53236;43.666;18.444;2023-04-25T02:34:35;6.90;99.90
65462;DHT22;53236;43.666;18.444;2023-04-25T02:37:02;6.90;99.90
65462;DHT22;53236;43.666;18.444;2023-04-25T02:39:27;7.00;99.90
65462;DHT22;53236;43.666;18.444;2023-04-25T02:41:53;6.90;99.90
65462;DHT22;53236;43.666;18.444;2023-04-25T02:44:19;7.00;99.90
65462;DHT22;53236;43.666;18.444;2023-04-25T02:46:45;7.00;99.90
65462;DHT22;53236;43.666;18.444;2023-04-25T02:49:11;7.00;99.90
65462;DHT22;53236;43.666;18.444;2023-04-25T02:51:36;7.00;99.90
65462;DHT22;53236;43.666;18.444;2023-04-25T02:54:02;7.10;99.90
65462;DHT22;53236;43.666;18.444;2023-04-25T02:56:28;7.10;99.90
65462;DHT22;53236;43.666;18.444;2023-04-25T02:58:54;7.00;99.90
65462;DHT22;53236;43.666;18.444;2023-04-25T03:01:20;7.00;99.90
65462;DHT22;53236;43.666;18.444;2023-04-25T03:03:45;6.90;99.90
65462;DHT22;53236;43.666;18.444;2023-04-25T03:06:11;6.90;99.90
65462;DHT22;53236;43.666;18.444;2023-04-25T03:08:37;6.90;99.90
65462;DHT22;53236;43.666;18.444;2023-04-25T03:11:03;6.90;99.90
65462;DHT22;53236;43.666;18.444;2023-04-25T03:13:29;6.80;99.90
65462;DHT22;53236;43.666;18.444;2023-04-25T03:15:55;6.90;99.90
65462;DHT22;53236;43.666;18.444;2023-04-25T03:18:21;6.90;99.90
65462;DHT22;53236;43.666;18.444;2023-04-25T03:20:46;6.80;99.90
65462;DHT22;53236;43.666;18.444;2023-04-25T03:23:12;6.80;99.90
65462;DHT22;53236;43.666;18.444;2023-04-25T03:25:38;6.90;99.90
65462;DHT22;53236;43.666;18.444;2023-04-25T03:28:04;6.90;99.90
65462;DHT22;53236;43.666;18.444;2023-04-25T03:30:29;7.00;99.90
65462;DHT22;53236;43.666;18.444;2023-04-25T03:32:55;7.00;99.90
65462;DHT22;53236;43.666;18.444;2023-04-25T03:35:21;7.00;99.90
65462;DHT22;53236;43.666;18.444;2023-04-25T03:37:48;7.00;99.90
65462;DHT22;53236;43.666;18.444;2023-04-25T03:40:14;7.00;99.90
65462;DHT22;53236;43.666;18.444;2023-04-25T03:42:40;7.00;99.90
65462;DHT22;53236;43.666;18.444;2023-04-25T03:45:06;7.00;99.90
65462;DHT22;53236;43.666;18.444;2023-04-25T03:47:32;7.00;99.90
65462;DHT22;53236;43.666;18.444;2023-04-25T03:49:58;7.00;99.90
65462;DHT22;53236;43.666;18.444;2023-04-25T03:52:26;7.00;99.90
65462;DHT22;53236;43.666;18.444;2023-04-25T03:54:51;7.00;99.90
65462;DHT22;53236;43.666;18.444;2023-04-25T03:57:17;6.90;99.90
65462;DHT22;53236;43.666;18.444;2023-04-25T03:59:43;6.90;99.90
65462;DHT22;53236;43.666;18.444;2023-04-25T04:02:09;6.90;99.90
65462;DHT22;53236;43.666;18.444;2023-04-25T04:04:35;6.90;99.90
65462;DHT22;53236;43.666;18.444;2023-04-25T04:07:01;7.00;99.90
65462;DHT22;53236;43.666;18.444;2023-04-25T04:09:26;7.10;99.90
65462;DHT22;53236;43.666;18.444;2023-04-25T04:11:53;7.00;99.90
65462;DHT22;53236;43.666;18.444;2023-04-25T04:14:19;7.10;99.90
65462;DHT22;53236;43.666;18.444;2023-04-25T04:16:45;7.10;99.90
65462;DHT22;53236;43.666;18.444;2023-04-25T04:19:10;7.10;99.90
65462;DHT22;53236;43.666;18.444;2023-04-25T04:21:36;7.10;99.90
65462;DHT22;53236;43.666;18.444;2023-04-25T04:24:02;7.10;99.90
65462;DHT22;53236;43.666;18.444;2023-04-25T04:26:28;7.10;99.90
65462;DHT22;53236;43.666;18.444;2023-04-25T04:28:54;7.10;99.90
65462;DHT22;53236;43.666;18.444;2023-04-25T04:31:21;7.10;99.90
65462;DHT22;53236;43.666;18.444;2023-04-25T04:33:47;7.20;99.90
65462;DHT22;53236;43.666;18.444;2023-04-25T04:36:13;7.20;99.90
65462;DHT22;53236;43.666;18.444;2023-04-25T04:38:39;7.20;99.90
65462;DHT22;53236;43.666;18.444;2023-04-25T04:41:06;7.20;99.90
65462;DHT22;53236;43.666;18.444;2023-04-25T04:43:32;7.30;99.90
65462;DHT22;53236;43.666;18.444;2023-04-25T04:46:00;7.30;99.90
65462;DHT22;53236;43.666;18.444;2023-04-25T04:48:26;7.30;99.90
65462;DHT22;53236;43.666;18.444;2023-04-25T04:50:52;7.30;99.90
65462;DHT22;53236;43.666;18.444;2023-04-25T04:53:18;7.30;99.90
65462;DHT22;53236;43.666;18.444;2023-04-25T04:55:44;7.30;99.90
65462;DHT22;53236;43.666;18.444;2023-04-25T04:58:09;7.40;99.90
65462;DHT22;53236;43.666;18.444;2023-04-25T05:00:35;7.40;99.90
65462;DHT22;53236;43.666;18.444;2023-04-25T05:03:01;7.50;99.90
65462;DHT22;53236;43.666;18.444;2023-04-25T05:05:27;7.50;99.90
65462;DHT22;53236;43.666;18.444;2023-04-25T05:07:52;7.50;99.90
65462;DHT22;53236;43.666;18.444;2023-04-25T05:10:19;7.50;99.90
65462;DHT22;53236;43.666;18.444;2023-04-25T05:12:44;7.50;99.90
65462;DHT22;53236;43.666;18.444;2023-04-25T05:15:11;7.50;99.90
65462;DHT22;53236;43.666;18.444;2023-04-25T05:17:37;7.50;99.90
65462;DHT22;53236;43.666;18.444;2023-04-25T05:20:03;7.50;99.90
65462;DHT22;53236;43.666;18.444;2023-04-25T05:22:31;7.40;99.90
65462;DHT22;53236;43.666;18.444;2023-04-25T05:24:57;7.50;99.90
65462;DHT22;53236;43.666;18.444;2023-04-25T05:27:24;7.50;99.90
65462;DHT22;53236;43.666;18.444;2023-04-25T05:29:50;7.50;99.90
65462;DHT22;53236;43.666;18.444;2023-04-25T05:32:15;7.60;99.90
65462;DHT22;53236;43.666;18.444;2023-04-25T05:34:41;7.50;99.90
65462;DHT22;53236;43.666;18.444;2023-04-25T05:37:07;7.50;99.90
65462;DHT22;53236;43.666;18.444;2023-04-25T05:39:33;7.50;99.90
65462;DHT22;53236;43.666;18.444;2023-04-25T05:41:58;7.60;99.90
65462;DHT22;53236;43.666;18.444;2023-04-25T05:44:24;7.60;99.90
65462;DHT22;53236;43.666;18.444;2023-04-25T05:46:50;7.60;99.90
65462;DHT22;53236;43.666;18.444;2023-04-25T05:49:16;7.50;99.90
65462;DHT22;53236;43.666;18.444;2023-04-25T05:51:42;7.50;99.90
65462;DHT22;53236;43.666;18.444;2023-04-25T05:54:07;7.50;99.90
65462;DHT22;53236;43.666;18.444;2023-04-25T05:56:33;7.50;99.90
65462;DHT22;53236;43.666;18.444;2023-04-25T05:58:59;7.50;99.90
65462;DHT22;53236;43.666;18.444;2023-04-25T06:01:25;7.40;99.90
65462;DHT22;53236;43.666;18.444;2023-04-25T06:03:50;7.40;99.90
65462;DHT22;53236;43.666;18.444;2023-04-25T06:06:18;7.40;99.90
65462;DHT22;53236;43.666;18.444;2023-04-25T06:08:44;7.40;99.90
65462;DHT22;53236;43.666;18.444;2023-04-25T06:11:10;7.40;99.90
65462;DHT22;53236;43.666;18.444;2023-04-25T06:13:36;7.30;99.90
65462;DHT22;53236;43.666;18.444;2023-04-25T06:16:02;7.40;99.90
65462;DHT22;53236;43.666;18.444;2023-04-25T06:18:28;7.40;99.90
65462;DHT22;53236;43.666;18.444;2023-04-25T06:20:53;7.30;99.90
65462;DHT22;53236;43.666;18.444;2023-04-25T06:23:19;7.40;99.90
65462;DHT22;53236;43.666;18.444;2023-04-25T06:25:45;7.60;99.90
65462;DHT22;53236;43.666;18.444;2023-04-25T06:28:11;7.60;99.90
65462;DHT22;53236;43.666;18.444;2023-04-25T06:30:36;7.70;99.90
65462;DHT22;53236;43.666;18.444;2023-04-25T06:33:02;7.70;99.90
65462;DHT22;53236;43.666;18.444;2023-04-25T06:35:28;7.60;99.90
65462;DHT22;53236;43.666;18.444;2023-04-25T06:37:54;7.60;99.90
65462;DHT22;53236;43.666;18.444;2023-04-25T06:40:19;7.70;99.90
65462;DHT22;53236;43.666;18.444;2023-04-25T06:42:45;7.50;99.90
65462;DHT22;53236;43.666;18.444;2023-04-25T06:45:11;7.50;99.90
65462;DHT22;53236;43.666;18.444;2023-04-25T06:47:37;7.60;99.90
65462;DHT22;53236;43.666;18.444;2023-04-25T06:50:03;7.50;99.90
65462;DHT22;53236;43.666;18.444;2023-04-25T06:52:29;7.60;99.90
65462;DHT22;53236;43.666;18.444;2023-04-25T06:54:55;7.40;99.90
65462;DHT22;53236;43.666;18.444;2023-04-25T06:57:20;7.50;99.90
65462;DHT22;53236;43.666;18.444;2023-04-25T06:59:46;7.50;99.90
65462;DHT22;53236;43.666;18.444;2023-04-25T07:02:12;7.50;99.90
65462;DHT22;53236;43.666;18.444;2023-04-25T07:04:38;7.40;99.90
65462;DHT22;53236;43.666;18.444;2023-04-25T07:07:03;7.40;99.90
65462;DHT22;53236;43.666;18.444;2023-04-25T07:09:29;7.30;99.90
65462;DHT22;53236;43.666;18.444;2023-04-25T07:11:55;7.40;99.90
65462;DHT22;53236;43.666;18.444;2023-04-25T07:14:22;7.40;99.90
65462;DHT22;53236;43.666;18.444;2023-04-25T07:16:48;7.40;99.90
65462;DHT22;53236;43.666;18.444;2023-04-25T07:19:13;7.50;99.90
65462;DHT22;53236;43.666;18.444;2023-04-25T07:21:39;7.50;99.90
65462;DHT22;53236;43.666;18.444;2023-04-25T07:24:05;7.50;99.90
65462;DHT22;53236;43.666;18.444;2023-04-25T07:26:32;7.40;99.90
65462;DHT22;53236;43.666;18.444;2023-04-25T07:28:57;7.30;99.90
65462;DHT22;53236;43.666;18.444;2023-04-25T07:31:23;7.40;99.90
65462;DHT22;53236;43.666;18.444;2023-04-25T07:33:49;7.40;99.90
65462;DHT22;53236;43.666;18.444;2023-04-25T07:36:15;7.40;99.90
65462;DHT22;53236;43.666;18.444;2023-04-25T07:38:41;7.50;99.90
65462;DHT22;53236;43.666;18.444;2023-04-25T07:41:07;7.60;99.90
65462;DHT22;53236;43.666;18.444;2023-04-25T07:43:32;7.70;99.90
65462;DHT22;53236;43.666;18.444;2023-04-25T07:45:58;7.80;99.90
65462;DHT22;53236;43.666;18.444;2023-04-25T07:48:24;7.80;99.90
65462;DHT22;53236;43.666;18.444;2023-04-25T07:50:50;7.70;99.90
65462;DHT22;53236;43.666;18.444;2023-04-25T07:53:16;7.70;99.90
65462;DHT22;53236;43.666;18.444;2023-04-25T07:55:43;7.90;99.90
65462;DHT22;53236;43.666;18.444;2023-04-25T07:58:09;7.90;99.90
65462;DHT22;53236;43.666;18.444;2023-04-25T08:00:36;7.90;99.90
65462;DHT22;53236;43.666;18.444;2023-04-25T08:03:02;7.80;99.90
65462;DHT22;53236;43.666;18.444;2023-04-25T08:05:28;7.90;99.90
65462;DHT22;53236;43.666;18.444;2023-04-25T08:07:54;8.00;99.90
65462;DHT22;53236;43.666;18.444;2023-04-25T08:10:20;8.00;99.90
65462;DHT22;53236;43.666;18.444;2023-04-25T08:12:48;8.10;99.90
65462;DHT22;53236;43.666;18.444;2023-04-25T08:15:14;8.20;99.90
65462;DHT22;53236;43.666;18.444;2023-04-25T08:17:40;8.10;99.90
65462;DHT22;53236;43.666;18.444;2023-04-25T08:20:06;8.10;99.90
65462;DHT22;53236;43.666;18.444;2023-04-25T08:22:32;8.00;99.90
65462;DHT22;53236;43.666;18.444;2023-04-25T08:24:58;8.10;99.90
65462;DHT22;53236;43.666;18.444;2023-04-25T08:27:23;8.20;99.90
65462;DHT22;53236;43.666;18.444;2023-04-25T08:29:49;8.30;99.90
65462;DHT22;53236;43.666;18.444;2023-04-25T08:32:16;8.40;99.90
65462;DHT22;53236;43.666;18.444;2023-04-25T08:34:42;8.40;99.90
65462;DHT22;53236;43.666;18.444;2023-04-25T08:37:09;8.40;99.90
65462;DHT22;53236;43.666;18.444;2023-04-25T08:39:38;8.30;99.90
65462;DHT22;53236;43.666;18.444;2023-04-25T08:42:06;8.30;99.90
65462;DHT22;53236;43.666;18.444;2023-04-25T08:44:35;8.40;99.90
65462;DHT22;53236;43.666;18.444;2023-04-25T08:47:03;8.40;99.90
65462;DHT22;53236;43.666;18.444;2023-04-25T08:49:32;8.50;99.90
65462;DHT22;53236;43.666;18.444;2023-04-25T08:52:03;8.50;99.90
65462;DHT22;53236;43.666;18.444;2023-04-25T08:54:31;8.60;99.90
65462;DHT22;53236;43.666;18.444;2023-04-25T08:57:00;8.60;99.90
65462;DHT22;53236;43.666;18.444;2023-04-25T08:59:28;8.60;99.90
65462;DHT22;53236;43.666;18.444;2023-04-25T09:01:54;8.50;99.90
65462;DHT22;53236;43.666;18.444;2023-04-25T09:04:20;8.50;99.90
65462;DHT22;53236;43.666;18.444;2023-04-25T09:06:47;8.60;99.90
65462;DHT22;53236;43.666;18.444;2023-04-25T09:09:13;8.60;99.90
65462;DHT22;53236;43.666;18.444;2023-04-25T09:11:39;8.60;99.90
65462;DHT22;53236;43.666;18.444;2023-04-25T09:14:15;8.70;99.90
65462;DHT22;53236;43.666;18.444;2023-04-25T09:17:07;9.00;99.90
65462;DHT22;53236;43.666;18.444;2023-04-25T09:19:36;9.00;99.90
65462;DHT22;53236;43.666;18.444;2023-04-25T09:22:05;9.10;99.90
65462;DHT22;53236;43.666;18.444;2023-04-25T09:24:35;9.20;99.90
65462;DHT22;53236;43.666;18.444;2023-04-25T09:27:10;9.40;99.90
65462;DHT22;53236;43.666;18.444;2023-04-25T09:29:38;9.70;99.90
65462;DHT22;53236;43.666;18.444;2023-04-25T09:32:23;9.80;99.90
65462;DHT22;53236;43.666;18.444;2023-04-25T09:34:56;9.80;99.90
65462;DHT22;53236;43.666;18.444;2023-04-25T09:37:29;9.90;99.90
65462;DHT22;53236;43.666;18.444;2023-04-25T09:39:56;10.40;99.90
65462;DHT22;53236;43.666;18.444;2023-04-25T09:42:26;10.40;99.90
65462;DHT22;53236;43.666;18.444;2023-04-25T09:44:54;10.10;99.90
65462;DHT22;53236;43.666;18.444;2023-04-25T09:47:20;10.40;99.90
65462;DHT22;53236;43.666;18.444;2023-04-25T09:49:49;10.40;99.90
65462;DHT22;53236;43.666;18.444;2023-04-25T09:52:17;10.40;99.90
65462;DHT22;53236;43.666;18.444;2023-04-25T09:54:48;10.50;99.90
65462;DHT22;53236;43.666;18.444;2023-04-25T09:57:24;10.70;99.90
65462;DHT22;53236;43.666;18.444;2023-04-25T09:59:54;10.90;99.90
65462;DHT22;53236;43.666;18.444;2023-04-25T10:02:22;11.10;99.90
65462;DHT22;53236;43.666;18.444;2023-04-25T10:04:49;11.20;99.90
65462;DHT22;53236;43.666;18.444;2023-04-25T10:07:18;11.70;99.90
65462;DHT22;53236;43.666;18.444;2023-04-25T10:09:48;12.00;99.90
65462;DHT22;53236;43.666;18.444;2023-04-25T10:12:16;12.00;99.90
65462;DHT22;53236;43.666;18.444;2023-04-25T10:14:42;11.50;99.90
65462;DHT22;53236;43.666;18.444;2023-04-25T10:17:10;11.60;99.90
65462;DHT22;53236;43.666;18.444;2023-04-25T10:19:37;11.70;99.90
65462;DHT22;53236;43.666;18.444;2023-04-25T10:24:45;11.40;99.90
65462;DHT22;53236;43.666;18.444;2023-04-25T10:27:12;11.40;99.90
65462;DHT22;53236;43.666;18.444;2023-04-25T10:29:39;11.50;99.90
65462;DHT22;53236;43.666;18.444;2023-04-25T10:32:08;11.20;99.90
65462;DHT22;53236;43.666;18.444;2023-04-25T10:34:39;11.40;99.90
65462;DHT22;53236;43.666;18.444;2023-04-25T10:37:08;11.60;99.90
65462;DHT22;53236;43.666;18.444;2023-04-25T10:39:35;11.80;99.90
65462;DHT22;53236;43.666;18.444;2023-04-25T10:42:02;11.90;99.90
65462;DHT22;53236;43.666;18.444;2023-04-25T10:44:32;11.90;97.80
65462;DHT22;53236;43.666;18.444;2023-04-25T10:46:59;11.90;99.90
65462;DHT22;53236;43.666;18.444;2023-04-25T10:49:33;12.00;99.90
65462;DHT22;53236;43.666;18.444;2023-04-25T10:52:32;11.90;99.90
65462;DHT22;53236;43.666;18.444;2023-04-25T10:54:58;12.00;99.30
65462;DHT22;53236;43.666;18.444;2023-04-25T10:57:30;12.30;99.90
65462;DHT22;53236;43.666;18.444;2023-04-25T11:00:05;12.40;97.60
65462;DHT22;53236;43.666;18.444;2023-04-25T11:02:31;12.50;99.90
65462;DHT22;53236;43.666;18.444;2023-04-25T11:04:57;12.60;96.60
65462;DHT22;53236;43.666;18.444;2023-04-25T11:10:06;12.50;98.70
65462;DHT22;53236;43.666;18.444;2023-04-25T11:12:32;12.10;92.40
65462;DHT22;53236;43.666;18.444;2023-04-25T11:15:05;12.10;99.30
65462;DHT22;53236;43.666;18.444;2023-04-25T11:17:31;12.00;99.90
65462;DHT22;53236;43.666;18.444;2023-04-25T11:19:57;11.90;94.80
65462;DHT22;53236;43.666;18.444;2023-04-25T11:22:23;11.80;97.60
65462;DHT22;53236;43.666;18.444;2023-04-25T11:24:49;11.80;98.00
65462;DHT22;53236;43.666;18.444;2023-04-25T11:27:16;11.80;99.80
65462;DHT22;53236;43.666;18.444;2023-04-25T11:29:41;11.80;99.90
65462;DHT22;53236;43.666;18.444;2023-04-25T11:32:07;11.80;99.90
65462;DHT22;53236;43.666;18.444;2023-04-25T11:34:34;11.90;99.90
65462;DHT22;53236;43.666;18.444;2023-04-25T11:37:01;12.20;99.90
65462;DHT22;53236;43.666;18.444;2023-04-25T11:39:28;12.20;99.90
65462;DHT22;53236;43.666;18.444;2023-04-25T11:41:55;12.40;99.90
65462;DHT22;53236;43.666;18.444;2023-04-25T11:44:21;12.60;99.90
65462;DHT22;53236;43.666;18.444;2023-04-25T11:46:47;12.80;97.70
65462;DHT22;53236;43.666;18.444;2023-04-25T11:49:16;12.40;95.90
65462;DHT22;53236;43.666;18.444;2023-04-25T11:51:45;11.70;99.90
65462;DHT22;53236;43.666;18.444;2023-04-25T11:54:12;11.50;99.90
65462;DHT22;53236;43.666;18.444;2023-04-25T11:56:41;11.50;99.90
65462;DHT22;53236;43.666;18.444;2023-04-25T11:59:08;11.60;99.90
65462;DHT22;53236;43.666;18.444;2023-04-25T12:01:47;11.80;99.90
65462;DHT22;53236;43.666;18.444;2023-04-25T12:06:41;12.70;97.10
65462;DHT22;53236;43.666;18.444;2023-04-25T12:09:09;13.00;98.30
65462;DHT22;53236;43.666;18.444;2023-04-25T12:11:46;13.20;92.00
65462;DHT22;53236;43.666;18.444;2023-04-25T12:14:26;13.40;93.30
65462;DHT22;53236;43.666;18.444;2023-04-25T12:16:55;13.60;92.30
65462;DHT22;53236;43.666;18.444;2023-04-25T12:19:21;13.80;92.40
65462;DHT22;53236;43.666;18.444;2023-04-25T12:21:48;14.00;91.00
65462;DHT22;53236;43.666;18.444;2023-04-25T12:24:16;14.10;90.40
65462;DHT22;53236;43.666;18.444;2023-04-25T12:27:04;13.90;85.80
65462;DHT22;53236;43.666;18.444;2023-04-25T12:29:32;13.90;84.60
65462;DHT22;53236;43.666;18.444;2023-04-25T12:31:58;14.00;93.50
65462;DHT22;53236;43.666;18.444;2023-04-25T12:34:24;13.90;92.10
65462;DHT22;53236;43.666;18.444;2023-04-25T12:36:51;13.80;80.60
65462;DHT22;53236;43.666;18.444;2023-04-25T12:39:22;13.50;90.40
65462;DHT22;53236;43.666;18.444;2023-04-25T12:41:51;13.50;94.20
65462;DHT22;53236;43.666;18.444;2023-04-25T12:44:21;13.40;85.80
65462;DHT22;53236;43.666;18.444;2023-04-25T12:46:48;13.30;94.40
65462;DHT22;53236;43.666;18.444;2023-04-25T12:49:13;13.50;94.00
65462;DHT22;53236;43.666;18.444;2023-04-25T12:51:40;13.50;92.60
65462;DHT22;53236;43.666;18.444;2023-04-25T12:54:07;13.60;93.10
65462;DHT22;53236;43.666;18.444;2023-04-25T12:56:34;13.80;81.10
65462;DHT22;53236;43.666;18.444;2023-04-25T12:58:59;13.70;79.90
65462;DHT22;53236;43.666;18.444;2023-04-25T13:01:26;13.70;85.90
65462;DHT22;53236;43.666;18.444;2023-04-25T13:03:52;13.90;82.70
65462;DHT22;53236;43.666;18.444;2023-04-25T13:06:19;13.90;83.00
65462;DHT22;53236;43.666;18.444;2023-04-25T13:08:45;14.10;91.50
65462;DHT22;53236;43.666;18.444;2023-04-25T13:11:11;14.00;88.50
65462;DHT22;53236;43.666;18.444;2023-04-25T13:13:37;13.70;79.30
65462;DHT22;53236;43.666;18.444;2023-04-25T13:16:04;13.70;87.70
65462;DHT22;53236;43.666;18.444;2023-04-25T13:18:30;13.60;90.30
65462;DHT22;53236;43.666;18.444;2023-04-25T13:20:57;13.60;95.10
65462;DHT22;53236;43.666;18.444;2023-04-25T13:23:26;13.90;94.40
65462;DHT22;53236;43.666;18.444;2023-04-25T13:25:52;14.10;92.30
65462;DHT22;53236;43.666;18.444;2023-04-25T13:28:18;14.20;90.40
65462;DHT22;53236;43.666;18.444;2023-04-25T13:30:44;14.30;83.00
65462;DHT22;53236;43.666;18.444;2023-04-25T13:33:10;14.40;81.30
65462;DHT22;53236;43.666;18.444;2023-04-25T13:35:37;14.40;84.20
65462;DHT22;53236;43.666;18.444;2023-04-25T13:38:03;14.20;90.00
65462;DHT22;53236;43.666;18.444;2023-04-25T13:40:30;14.20;85.40
65462;DHT22;53236;43.666;18.444;2023-04-25T13:42:57;14.30;83.40
65462;DHT22;53236;43.666;18.444;2023-04-25T13:45:23;14.20;95.50
65462;DHT22;53236;43.666;18.444;2023-04-25T13:47:49;14.20;85.70
65462;DHT22;53236;43.666;18.444;2023-04-25T13:50:15;14.30;86.50
65462;DHT22;53236;43.666;18.444;2023-04-25T13:52:41;14.30;74.50
65462;DHT22;53236;43.666;18.444;2023-04-25T13:55:08;14.20;75.10
65462;DHT22;53236;43.666;18.444;2023-04-25T13:57:34;14.10;77.30
65462;DHT22;53236;43.666;18.444;2023-04-25T14:00:00;13.90;76.30
65462;DHT22;53236;43.666;18.444;2023-04-25T14:02:31;13.90;77.80
65462;DHT22;53236;43.666;18.444;2023-04-25T14:04:57;13.90;79.30
65462;DHT22;53236;43.666;18.444;2023-04-25T14:07:23;13.90;81.40
65462;DHT22;53236;43.666;18.444;2023-04-25T14:09:49;13.90;83.80
65462;DHT22;53236;43.666;18.444;2023-04-25T14:12:15;14.00;80.00
65462;DHT22;53236;43.666;18.444;2023-04-25T14:14:41;13.90;77.90
65462;DHT22;53236;43.666;18.444;2023-04-25T14:17:08;13.90;79.80
65462;DHT22;53236;43.666;18.444;2023-04-25T14:19:34;13.90;81.80
65462;DHT22;53236;43.666;18.444;2023-04-25T14:21:59;13.90;83.40
65462;DHT22;53236;43.666;18.444;2023-04-25T14:24:25;13.90;93.30
65462;DHT22;53236;43.666;18.444;2023-04-25T14:26:51;13.90;82.40
65462;DHT22;53236;43.666;18.444;2023-04-25T14:29:17;13.90;88.70
65462;DHT22;53236;43.666;18.444;2023-04-25T14:31:43;13.90;87.50
65462;DHT22;53236;43.666;18.444;2023-04-25T14:34:09;13.90;86.20
65462;DHT22;53236;43.666;18.444;2023-04-25T14:36:35;13.80;85.50
65462;DHT22;53236;43.666;18.444;2023-04-25T14:39:02;13.90;91.70
65462;DHT22;53236;43.666;18.444;2023-04-25T14:41:28;13.60;90.10
65462;DHT22;53236;43.666;18.444;2023-04-25T14:43:54;13.60;91.80
65462;DHT22;53236;43.666;18.444;2023-04-25T14:46:21;13.70;92.40
65462;DHT22;53236;43.666;18.444;2023-04-25T14:48:47;13.50;90.10
65462;DHT22;53236;43.666;18.444;2023-04-25T14:51:13;13.30;90.60
65462;DHT22;53236;43.666;18.444;2023-04-25T14:53:40;13.30;94.70
65462;DHT22;53236;43.666;18.444;2023-04-25T14:56:06;13.30;94.30
65462;DHT22;53236;43.666;18.444;2023-04-25T14:58:32;13.20;96.60
65462;DHT22;53236;43.666;18.444;2023-04-25T15:00:59;13.10;96.40
65462;DHT22;53236;43.666;18.444;2023-04-25T15:03:24;13.00;97.30
65462;DHT22;53236;43.666;18.444;2023-04-25T15:05:50;13.00;95.80
65462;DHT22;53236;43.666;18.444;2023-04-25T15:08:16;13.00;98.50
65462;DHT22;53236;43.666;18.444;2023-04-25T15:10:42;13.00;97.50
65462;DHT22;53236;43.666;18.444;2023-04-25T15:13:07;12.90;98.30
65462;DHT22;53236;43.666;18.444;2023-04-25T15:15:35;12.90;99.90
65462;DHT22;53236;43.666;18.444;2023-04-25T15:18:02;12.70;98.90
65462;DHT22;53236;43.666;18.444;2023-04-25T15:20:28;12.60;99.00
65462;DHT22;53236;43.666;18.444;2023-04-25T15:22:54;12.50;99.90
65462;DHT22;53236;43.666;18.444;2023-04-25T15:25:20;12.40;99.90
65462;DHT22;53236;43.666;18.444;2023-04-25T15:27:46;12.40;99.90
65462;DHT22;53236;43.666;18.444;2023-04-25T15:30:17;12.20;99.90